Terminal Aerodrome Forecast
Issued by NWS

Home | Current Version | Previous Version | Text Only | Print | Product List | Glossary On
Versions: 1 2 3 4 5 6 7 8 9 10 11 12 13 14 15 16
000
FTUS42 KRAH 132323
TAFRWI
TAF
KRWI 132323Z 1400/1424 VRB04KT P6SM SKC
     FM140200 20005KT P6SM SCT110 WS020/22035KT
     FM141100 22006KT P6SM SKC WS020/26035KT
     FM141300 23006KT P6SM SKC
     FM141600 27009KT P6SM SKC=

USA.gov is the U.S. government's official web portal to all federal, state and local government web resources and services.